Time;durP1;ratioP1;P1;durP2;ratioP2;P2;SDS_P1;SDS_P2;PMS_P1;PMS_P2;Temp;Humidity;BMP_temperature;BMP_pressure;BME280_temperature;BME280_humidity;BME280_pressure;Samples;Min_cycle;Max_cycle;Signal;HPM_P1;HPM_P2
2022/07/15 00:01:28;;;;;;;3.85;1.20;;;;;;;;;;4816555;29;20030;-65
2022/07/15 00:03:54;;;;;;;4.53;1.23;;;;;;;;;;4821487;29;20037;-66
2022/07/15 00:06:20;;;;;;;3.80;1.30;;;;;;;;;;4819174;29;20043;-65
2022/07/15 00:08:46;;;;;;;3.38;1.20;;;;;;;;;;4818120;29;20137;-66
2022/07/15 00:11:11;;;;;;;6.35;1.30;;;;;;;;;;4821480;29;20034;-68
2022/07/15 00:13:37;;;;;;;3.00;1.30;;;;;;;;;;4818749;29;20172;-66
2022/07/15 00:16:02;;;;;;;3.13;1.17;;;;;;;;;;4814693;29;20034;-65
2022/07/15 00:18:28;;;;;;;2.85;1.20;;;;;;;;;;4817371;29;20090;-65
2022/07/15 00:20:53;;;;;;;3.40;1.20;;;;;;;;;;4816008;29;20392;-65
2022/07/15 00:23:18;;;;;;;4.35;1.25;;;;;;;;;;4812563;29;20065;-67
2022/07/15 00:25:44;;;;;;;4.88;1.40;;;;;;;;;;4812124;29;20554;-67
2022/07/15 00:28:09;;;;;;;6.13;1.73;;;;;;;;;;4814955;29;20895;-66
2022/07/15 00:30:38;;;;;;;4.45;1.20;;;;;;;;;;4819899;29;20038;-66
2022/07/15 00:33:05;;;;;;;5.63;1.40;;;;;;;;;;4817422;29;20027;-66
2022/07/15 00:35:32;;;;;;;3.15;1.25;;;;;;;;;;4810334;29;20133;-66
2022/07/15 00:37:58;;;;;;;5.90;1.45;;;;;;;;;;4817481;29;20113;-68
2022/07/15 00:40:24;;;;;;;3.35;1.60;;;;;;;;;;4813938;29;20056;-67
2022/07/15 00:42:50;;;;;;;2.05;1.20;;;;;;;;;;4816420;29;20030;-66
2022/07/15 00:45:18;;;;;;;3.53;1.88;;;;;;;;;;4808057;29;20048;-68
2022/07/15 00:47:45;;;;;;;4.55;1.33;;;;;;;;;;4822460;29;20034;-65
2022/07/15 00:50:11;;;;;;;3.47;1.10;;;;;;;;;;4820768;29;20046;-67
2022/07/15 00:52:40;;;;;;;3.17;1.33;;;;;;;;;;4816753;29;20391;-67
2022/07/15 00:55:08;;;;;;;2.90;1.30;;;;;;;;;;4815598;29;20025;-65
2022/07/15 00:57:37;;;;;;;1.55;1.20;;;;;;;;;;4822668;29;20125;-67
2022/07/15 01:00:04;;;;;;;3.75;1.40;;;;;;;;;;4818046;29;20503;-66
2022/07/15 01:02:31;;;;;;;4.15;1.15;;;;;;;;;;4812342;29;20039;-66
2022/07/15 01:04:59;;;;;;;3.03;1.00;;;;;;;;;;4810707;29;20054;-66
2022/07/15 01:07:24;;;;;;;5.70;1.30;;;;;;;;;;4816634;29;20034;-67
2022/07/15 01:09:49;;;;;;;5.03;1.30;;;;;;;;;;4819147;29;20042;-70
2022/07/15 01:12:15;;;;;;;3.33;1.10;;;;;;;;;;4814239;29;20042;-67
2022/07/15 01:14:40;;;;;;;3.22;1.55;;;;;;;;;;4820205;29;20066;-66
2022/07/15 01:17:12;;;;;;;4.50;1.45;;;;;;;;;;4816346;29;20035;-67
2022/07/15 01:19:38;;;;;;;4.90;0.93;;;;;;;;;;4815768;29;20539;-66
2022/07/15 01:22:07;;;;;;;3.70;1.20;;;;;;;;;;4808493;29;20996;-65
2022/07/15 01:24:33;;;;;;;3.83;1.08;;;;;;;;;;4812967;29;20065;-65
2022/07/15 01:27:00;;;;;;;4.30;1.30;;;;;;;;;;4818376;29;20551;-66
2022/07/15 01:29:25;;;;;;;2.95;1.00;;;;;;;;;;4818710;29;20061;-69
2022/07/15 01:31:51;;;;;;;4.47;1.40;;;;;;;;;;4812518;29;20121;-67
2022/07/15 01:34:17;;;;;;;2.95;1.10;;;;;;;;;;4820529;29;20027;-66
2022/07/15 01:36:42;;;;;;;3.03;1.20;;;;;;;;;;4816091;29;20036;-65
2022/07/15 01:39:08;;;;;;;3.58;1.20;;;;;;;;;;4816399;29;20061;-67
2022/07/15 01:41:33;;;;;;;4.78;1.23;;;;;;;;;;4817817;29;20122;-67
2022/07/15 01:43:59;;;;;;;5.10;1.23;;;;;;;;;;4819109;29;20415;-67
2022/07/15 01:46:24;;;;;;;2.25;1.02;;;;;;;;;;4816756;29;20030;-66
2022/07/15 01:51:34;;;;;;;2.30;1.05;;;;;;;;;;4816458;29;20041;-65
2022/07/15 01:53:59;;;;;;;2.35;1.38;;;;;;;;;;4820452;29;20054;-65
2022/07/15 01:56:25;;;;;;;3.42;1.38;;;;;;;;;;4811778;29;20459;-67
2022/07/15 01:58:50;;;;;;;3.38;1.58;;;;;;;;;;4821879;29;20403;-69
2022/07/15 02:01:17;;;;;;;2.10;1.27;;;;;;;;;;4822669;29;20500;-66
2022/07/15 02:03:43;;;;;;;2.33;1.05;;;;;;;;;;4818611;29;20578;-66
2022/07/15 02:06:09;;;;;;;3.33;1.20;;;;;;;;;;4822032;29;20050;-67
2022/07/15 02:08:35;;;;;;;2.40;1.02;;;;;;;;;;4822043;29;20041;-67
2022/07/15 02:11:00;;;;;;;2.83;1.30;;;;;;;;;;4817091;29;20448;-69
2022/07/15 02:13:26;;;;;;;2.47;1.02;;;;;;;;;;4817560;29;20026;-69
2022/07/15 02:15:51;;;;;;;4.38;1.10;;;;;;;;;;4815427;29;20054;-69
2022/07/15 02:18:17;;;;;;;3.70;1.50;;;;;;;;;;4821554;29;20054;-69
2022/07/15 02:20:42;;;;;;;4.40;1.10;;;;;;;;;;4815252;29;20046;-69
2022/07/15 02:23:09;;;;;;;3.13;1.27;;;;;;;;;;4823674;29;20038;-69
2022/07/15 02:25:34;;;;;;;5.38;1.25;;;;;;;;;;4815120;29;20498;-69
2022/07/15 02:28:03;;;;;;;3.75;1.45;;;;;;;;;;4822106;29;20030;-69
2022/07/15 02:30:35;;;;;;;2.90;1.00;;;;;;;;;;4816170;29;20521;-69
2022/07/15 02:33:01;;;;;;;6.03;1.57;;;;;;;;;;4810964;29;20050;-69
2022/07/15 02:35:28;;;;;;;3.65;1.20;;;;;;;;;;4816000;29;20348;-69
2022/07/15 02:37:53;;;;;;;3.60;1.00;;;;;;;;;;4812379;29;20034;-70
2022/07/15 02:40:19;;;;;;;2.13;1.30;;;;;;;;;;4817459;29;20566;-69
2022/07/15 02:42:50;;;;;;;5.28;1.30;;;;;;;;;;4816145;29;20121;-70
2022/07/15 02:45:20;;;;;;;2.47;1.00;;;;;;;;;;4815900;29;20079;-70
2022/07/15 02:47:46;;;;;;;3.00;1.10;;;;;;;;;;4813786;29;20522;-70
2022/07/15 02:50:11;;;;;;;3.80;1.10;;;;;;;;;;4817328;29;20034;-69
2022/07/15 02:52:37;;;;;;;3.08;1.00;;;;;;;;;;4816752;29;20046;-69
2022/07/15 02:55:04;;;;;;;4.57;1.30;;;;;;;;;;4814209;29;20157;-70
2022/07/15 02:57:29;;;;;;;2.90;1.27;;;;;;;;;;4815324;29;20034;-69
2022/07/15 02:59:54;;;;;;;4.72;1.25;;;;;;;;;;4815003;29;20080;-68
2022/07/15 03:02:20;;;;;;;7.03;1.27;;;;;;;;;;4812087;29;20057;-69
2022/07/15 03:04:45;;;;;;;2.58;1.42;;;;;;;;;;4814688;29;20053;-69
2022/07/15 03:07:11;;;;;;;2.25;0.90;;;;;;;;;;4811720;29;20495;-70
2022/07/15 03:09:37;;;;;;;3.67;1.20;;;;;;;;;;4818007;29;20056;-70
2022/07/15 03:12:03;;;;;;;3.88;1.15;;;;;;;;;;4816737;29;20438;-70
2022/07/15 03:14:28;;;;;;;8.20;0.98;;;;;;;;;;4821607;29;20041;-70
2022/07/15 03:16:53;;;;;;;2.95;0.95;;;;;;;;;;4812417;29;20043;-70
2022/07/15 03:19:20;;;;;;;5.38;1.38;;;;;;;;;;4819577;29;20038;-72
2022/07/15 03:21:46;;;;;;;3.38;1.00;;;;;;;;;;4821038;29;20098;-70
2022/07/15 03:24:13;;;;;;;6.30;1.58;;;;;;;;;;4814661;29;20046;-71
2022/07/15 03:26:38;;;;;;;1.88;0.77;;;;;;;;;;4817068;29;20061;-71
2022/07/15 03:29:04;;;;;;;0.93;0.82;;;;;;;;;;4818000;29;20053;-70
2022/07/15 03:31:29;;;;;;;2.22;1.10;;;;;;;;;;4815662;29;20475;-70
2022/07/15 03:33:55;;;;;;;5.28;1.08;;;;;;;;;;4806753;29;20034;-71
2022/07/15 03:36:21;;;;;;;3.90;1.00;;;;;;;;;;4803002;29;20034;-70
2022/07/15 03:38:49;;;;;;;2.47;0.90;;;;;;;;;;4815387;29;20042;-70
2022/07/15 03:41:14;;;;;;;10.13;1.38;;;;;;;;;;4815932;29;20550;-69
2022/07/15 03:43:39;;;;;;;1.80;1.00;;;;;;;;;;4816944;29;20047;-70
2022/07/15 03:46:05;;;;;;;2.17;1.10;;;;;;;;;;4822590;29;20044;-71
2022/07/15 03:48:30;;;;;;;3.50;1.23;;;;;;;;;;4820530;29;20052;-70
2022/07/15 03:50:56;;;;;;;7.88;1.10;;;;;;;;;;4819172;29;20072;-69
2022/07/15 03:53:21;;;;;;;4.30;1.10;;;;;;;;;;4819319;29;20107;-69
2022/07/15 03:55:47;;;;;;;4.15;1.15;;;;;;;;;;4816332;29;20610;-70
2022/07/15 03:58:12;;;;;;;2.95;0.90;;;;;;;;;;4819315;29;20816;-70
2022/07/15 04:00:37;;;;;;;3.60;1.15;;;;;;;;;;4799805;29;20050;-71
2022/07/15 04:03:03;;;;;;;3.65;1.00;;;;;;;;;;4823794;29;20042;-70
2022/07/15 04:05:28;;;;;;;4.05;1.38;;;;;;;;;;4815623;29;20038;-70
2022/07/15 04:07:54;;;;;;;4.72;1.08;;;;;;;;;;4813026;29;20095;-70
2022/07/15 04:10:19;;;;;;;3.15;0.90;;;;;;;;;;4817748;29;20030;-69
2022/07/15 04:12:44;;;;;;;3.55;1.40;;;;;;;;;;4813520;29;20037;-70
2022/07/15 04:15:10;;;;;;;5.10;1.42;;;;;;;;;;4816530;29;20059;-71
2022/07/15 04:17:36;;;;;;;6.88;1.25;;;;;;;;;;4814280;29;20075;-71
2022/07/15 04:20:02;;;;;;;3.05;1.10;;;;;;;;;;4815539;29;20043;-71
2022/07/15 04:22:27;;;;;;;5.53;1.00;;;;;;;;;;4820549;29;20467;-70
2022/07/15 04:24:53;;;;;;;4.18;1.20;;;;;;;;;;4821250;29;20034;-71
2022/07/15 04:27:18;;;;;;;2.00;1.02;;;;;;;;;;4814835;29;20045;-70
2022/07/15 04:29:43;;;;;;;5.18;1.20;;;;;;;;;;4824049;29;20708;-70
2022/07/15 04:32:09;;;;;;;7.05;1.20;;;;;;;;;;4821440;29;20083;-70
2022/07/15 04:34:34;;;;;;;4.10;1.00;;;;;;;;;;4819394;29;20053;-69
2022/07/15 04:37:00;;;;;;;2.58;1.00;;;;;;;;;;4823504;29;20462;-69
2022/07/15 04:39:26;;;;;;;4.05;1.15;;;;;;;;;;4817997;29;20073;-70
2022/07/15 04:41:51;;;;;;;4.75;1.30;;;;;;;;;;4819941;29;20057;-71
2022/07/15 04:44:18;;;;;;;2.40;0.98;;;;;;;;;;4818704;29;20046;-70
2022/07/15 04:46:43;;;;;;;7.22;1.35;;;;;;;;;;4823282;29;20549;-69
2022/07/15 04:51:53;;;;;;;4.22;1.20;;;;;;;;;;4820231;29;20049;-70
2022/07/15 04:54:18;;;;;;;4.50;1.20;;;;;;;;;;4827898;29;20132;-70
2022/07/15 04:56:44;;;;;;;4.53;1.00;;;;;;;;;;4823007;29;20029;-70
2022/07/15 04:59:09;;;;;;;5.20;1.30;;;;;;;;;;4823056;29;20042;-69
2022/07/15 05:01:34;;;;;;;2.38;1.17;;;;;;;;;;4818764;29;20057;-68
2022/07/15 05:04:01;;;;;;;3.53;1.30;;;;;;;;;;4822375;29;20073;-71
2022/07/15 05:06:27;;;;;;;5.50;1.23;;;;;;;;;;4816383;29;20165;-71
2022/07/15 05:08:52;;;;;;;4.13;1.45;;;;;;;;;;4821303;29;20486;-70
2022/07/15 05:11:18;;;;;;;2.25;1.20;;;;;;;;;;4821726;29;20061;-69
2022/07/15 05:13:43;;;;;;;4.28;1.45;;;;;;;;;;4825084;29;20511;-69
2022/07/15 05:16:09;;;;;;;2.58;1.17;;;;;;;;;;4820154;29;20125;-69
2022/07/15 05:18:35;;;;;;;2.55;1.25;;;;;;;;;;4827692;29;20141;-69
2022/07/15 05:21:01;;;;;;;2.90;1.10;;;;;;;;;;4818790;29;20058;-69
2022/07/15 05:23:26;;;;;;;7.80;1.60;;;;;;;;;;4821060;29;20468;-68
2022/07/15 05:25:52;;;;;;;7.72;1.70;;;;;;;;;;4818283;29;20411;-69
2022/07/15 05:28:18;;;;;;;4.30;0.90;;;;;;;;;;4814040;29;20067;-69
2022/07/15 05:30:43;;;;;;;2.53;1.30;;;;;;;;;;4816225;29;20081;-69
2022/07/15 05:33:09;;;;;;;4.03;1.25;;;;;;;;;;4821169;29;20038;-69
2022/07/15 05:35:34;;;;;;;3.03;1.13;;;;;;;;;;4817162;29;20050;-70
2022/07/15 05:38:00;;;;;;;2.13;1.13;;;;;;;;;;4821774;29;20061;-71
2022/07/15 05:40:25;;;;;;;4.88;1.40;;;;;;;;;;4799373;29;20038;-70
2022/07/15 05:42:51;;;;;;;8.20;1.30;;;;;;;;;;4822277;29;20091;-70
2022/07/15 05:45:16;;;;;;;4.63;1.15;;;;;;;;;;4820801;29;20038;-71
2022/07/15 05:47:49;;;;;;;3.67;1.50;;;;;;;;;;4818179;29;20038;-70
2022/07/15 05:50:15;;;;;;;4.72;1.15;;;;;;;;;;4821144;29;20045;-70
2022/07/15 05:52:40;;;;;;;8.63;1.17;;;;;;;;;;4821597;29;20046;-70
2022/07/15 05:55:06;;;;;;;4.22;1.42;;;;;;;;;;4822715;29;20029;-69
2022/07/15 05:57:32;;;;;;;5.18;1.40;;;;;;;;;;4821173;29;20506;-69
2022/07/15 05:59:57;;;;;;;3.17;0.95;;;;;;;;;;4789955;29;20046;-69
2022/07/15 06:02:23;;;;;;;2.83;1.02;;;;;;;;;;4821326;29;20034;-69
2022/07/15 06:04:48;;;;;;;4.72;1.63;;;;;;;;;;4819614;29;20054;-69
2022/07/15 06:07:13;;;;;;;3.25;1.20;;;;;;;;;;4822718;29;20065;-71
2022/07/15 06:09:39;;;;;;;6.68;1.35;;;;;;;;;;4822326;29;20398;-68
2022/07/15 06:12:04;;;;;;;3.22;1.00;;;;;;;;;;4825068;29;20050;-69
2022/07/15 06:14:30;;;;;;;7.20;1.10;;;;;;;;;;4827739;29;20121;-70
2022/07/15 06:16:55;;;;;;;3.55;0.98;;;;;;;;;;4818486;29;20456;-70
2022/07/15 06:19:21;;;;;;;2.17;1.00;;;;;;;;;;4820041;29;20030;-69
2022/07/15 06:21:46;;;;;;;7.93;1.08;;;;;;;;;;4820028;29;20049;-69
2022/07/15 06:24:12;;;;;;;2.63;0.80;;;;;;;;;;4825478;29;20038;-70
2022/07/15 06:26:37;;;;;;;2.40;0.90;;;;;;;;;;4815958;29;20087;-69
2022/07/15 06:29:03;;;;;;;9.25;2.33;;;;;;;;;;4823506;29;20051;-69
2022/07/15 06:31:28;;;;;;;6.82;1.23;;;;;;;;;;4822349;29;20033;-70
2022/07/15 06:33:53;;;;;;;2.45;1.13;;;;;;;;;;4819936;29;22139;-69
2022/07/15 06:36:19;;;;;;;7.20;1.50;;;;;;;;;;4823627;29;20042;-70
2022/07/15 06:38:44;;;;;;;3.55;1.35;;;;;;;;;;4816922;29;20042;-67
2022/07/15 06:41:10;;;;;;;5.40;1.02;;;;;;;;;;4809243;29;20402;-69
2022/07/15 06:43:35;;;;;;;5.03;1.00;;;;;;;;;;4819586;29;20462;-70
2022/07/15 06:46:01;;;;;;;2.80;0.98;;;;;;;;;;4824752;29;20546;-71
2022/07/15 06:48:26;;;;;;;4.57;1.00;;;;;;;;;;4827012;29;20042;-70
2022/07/15 06:50:52;;;;;;;4.57;1.60;;;;;;;;;;4817403;29;20127;-71
2022/07/15 06:53:17;;;;;;;3.45;0.98;;;;;;;;;;4818764;29;20156;-71
2022/07/15 06:55:43;;;;;;;4.82;1.33;;;;;;;;;;4822074;29;20121;-71
2022/07/15 06:58:08;;;;;;;5.65;1.10;;;;;;;;;;4823903;29;20031;-71
2022/07/15 07:00:34;;;;;;;3.30;1.10;;;;;;;;;;4823991;29;20037;-70
2022/07/15 07:02:59;;;;;;;6.43;1.00;;;;;;;;;;4820280;29;20401;-70
2022/07/15 07:05:25;;;;;;;3.53;0.82;;;;;;;;;;4823729;29;20074;-69
2022/07/15 07:07:50;;;;;;;5.63;1.60;;;;;;;;;;4819419;29;20050;-70
2022/07/15 07:10:16;;;;;;;4.20;1.10;;;;;;;;;;4820735;29;20045;-67
2022/07/15 07:12:41;;;;;;;1.92;0.85;;;;;;;;;;4803127;29;20444;-71
2022/07/15 07:15:07;;;;;;;3.50;0.95;;;;;;;;;;4819381;29;20066;-70
2022/07/15 07:17:33;;;;;;;2.88;1.20;;;;;;;;;;4820260;29;20034;-68
2022/07/15 07:20:01;;;;;;;3.65;1.00;;;;;;;;;;4800537;29;20042;-71
2022/07/15 07:22:27;;;;;;;3.45;0.98;;;;;;;;;;4800052;29;20380;-70
2022/07/15 07:24:53;;;;;;;2.60;1.00;;;;;;;;;;4817456;29;20483;-72
2022/07/15 07:27:19;;;;;;;2.83;1.23;;;;;;;;;;4802822;29;20403;-68
2022/07/15 07:29:45;;;;;;;3.67;0.90;;;;;;;;;;4820781;29;20057;-68
2022/07/15 07:32:10;;;;;;;4.30;1.23;;;;;;;;;;4801845;29;20081;-68
2022/07/15 07:34:36;;;;;;;6.32;1.20;;;;;;;;;;4792651;29;20058;-68
2022/07/15 07:37:01;;;;;;;2.53;1.20;;;;;;;;;;4815398;29;20038;-70
2022/07/15 07:39:27;;;;;;;3.75;1.00;;;;;;;;;;4820960;29;20142;-69
2022/07/15 07:41:53;;;;;;;4.55;1.17;;;;;;;;;;4819880;29;20035;-71
2022/07/15 07:44:19;;;;;;;3.25;1.13;;;;;;;;;;4817250;29;20058;-70
2022/07/15 07:46:45;;;;;;;3.70;1.15;;;;;;;;;;4819279;29;20049;-70
2022/07/15 07:49:12;;;;;;;3.72;1.30;;;;;;;;;;4821620;29;20039;-70
2022/07/15 07:51:39;;;;;;;5.32;1.33;;;;;;;;;;4816619;29;20103;-68
2022/07/15 07:54:05;;;;;;;6.35;1.30;;;;;;;;;;4825359;29;20564;-69
2022/07/15 07:56:30;;;;;;;3.55;1.20;;;;;;;;;;4828509;29;20042;-69
2022/07/15 07:58:55;;;;;;;4.20;1.10;;;;;;;;;;4827040;29;20169;-69
2022/07/15 08:01:21;;;;;;;6.18;1.40;;;;;;;;;;4822810;29;20027;-69
2022/07/15 08:03:46;;;;;;;6.68;1.35;;;;;;;;;;4823546;29;20034;-68
2022/07/15 08:06:12;;;;;;;5.78;1.60;;;;;;;;;;4823597;29;20129;-69
2022/07/15 08:08:38;;;;;;;2.78;1.25;;;;;;;;;;4825984;29;20129;-67
2022/07/15 08:11:04;;;;;;;4.53;1.45;;;;;;;;;;4821047;29;20038;-71
2022/07/15 08:13:29;;;;;;;4.13;1.40;;;;;;;;;;4822998;29;20082;-69
2022/07/15 08:15:56;;;;;;;3.65;1.63;;;;;;;;;;4820547;29;20042;-69
2022/07/15 08:18:22;;;;;;;4.18;1.98;;;;;;;;;;4822059;29;20475;-70
2022/07/15 08:20:47;;;;;;;4.13;2.05;;;;;;;;;;4819097;29;20066;-70
2022/07/15 08:23:19;;;;;;;4.72;1.85;;;;;;;;;;4826343;29;20980;-70
2022/07/15 08:25:44;;;;;;;4.85;2.17;;;;;;;;;;4808060;29;20046;-67
2022/07/15 08:28:09;;;;;;;4.68;2.47;;;;;;;;;;4830051;29;20038;-68
2022/07/15 08:30:35;;;;;;;6.53;2.60;;;;;;;;;;4827070;29;20077;-70
2022/07/15 08:33:02;;;;;;;4.43;2.05;;;;;;;;;;4816809;29;20074;-70
2022/07/15 08:35:27;;;;;;;16.95;2.95;;;;;;;;;;4812338;29;20049;-67
2022/07/15 08:37:53;;;;;;;2.70;2.00;;;;;;;;;;4816831;29;20043;-70
2022/07/15 08:40:20;;;;;;;5.70;1.90;;;;;;;;;;4819198;29;20041;-69
2022/07/15 08:42:48;;;;;;;5.00;1.88;;;;;;;;;;4821698;29;20137;-71
2022/07/15 08:45:16;;;;;;;4.40;1.85;;;;;;;;;;4824045;29;20035;-70
2022/07/15 08:47:44;;;;;;;4.22;1.95;;;;;;;;;;4825339;29;20037;-70
2022/07/15 08:50:11;;;;;;;5.63;2.30;;;;;;;;;;4821381;29;20050;-69
2022/07/15 08:52:38;;;;;;;3.28;1.90;;;;;;;;;;4810116;29;20050;-70
2022/07/15 08:55:06;;;;;;;7.57;2.10;;;;;;;;;;4823043;29;20033;-70
2022/07/15 08:57:32;;;;;;;3.10;2.00;;;;;;;;;;4806470;29;20034;-70
2022/07/15 08:59:57;;;;;;;3.30;1.90;;;;;;;;;;4819913;29;20464;-69
2022/07/15 09:02:23;;;;;;;3.85;2.10;;;;;;;;;;4816411;29;20042;-70
2022/07/15 09:05:27;;;;;;;3.25;1.92;;;;;;;;;;4826517;29;20057;-68
2022/07/15 09:08:03;;;;;;;2.75;2.00;;;;;;;;;;4819928;29;20058;-69
2022/07/15 09:10:55;;;;;;;4.45;2.10;;;;;;;;;;4820697;29;20487;-70
2022/07/15 09:13:25;;;;;;;4.30;2.05;;;;;;;;;;4822748;29;20378;-70
2022/07/15 09:15:52;;;;;;;2.22;1.52;;;;;;;;;;4817115;29;20553;-70
2022/07/15 09:18:26;;;;;;;3.55;1.90;;;;;;;;;;4817593;29;20483;-68
2022/07/15 09:20:52;;;;;;;3.10;1.40;;;;;;;;;;4781142;29;20047;-69
2022/07/15 09:23:23;;;;;;;8.98;2.00;;;;;;;;;;4821593;29;20598;-67
2022/07/15 09:25:50;;;;;;;4.22;1.60;;;;;;;;;;4819982;29;20426;-67
2022/07/15 09:28:16;;;;;;;3.38;1.80;;;;;;;;;;4803522;29;20042;-70
2022/07/15 09:33:40;;;;;;;5.63;2.40;;;;;;;;;;4821436;29;20593;-71
2022/07/15 09:36:05;;;;;;;2.58;1.60;;;;;;;;;;4820952;29;20130;-70
2022/07/15 09:38:33;;;;;;;3.47;1.70;;;;;;;;;;4820920;29;20448;-70
2022/07/15 09:40:59;;;;;;;5.20;1.95;;;;;;;;;;4812492;29;20043;-70
2022/07/15 09:43:25;;;;;;;4.35;1.90;;;;;;;;;;4807910;29;20405;-71
2022/07/15 09:45:59;;;;;;;4.72;1.63;;;;;;;;;;4808570;29;20083;-69
2022/07/15 09:48:28;;;;;;;6.43;1.92;;;;;;;;;;4814049;29;20043;-72
2022/07/15 09:50:58;;;;;;;4.85;1.70;;;;;;;;;;4810709;29;20168;-70
2022/07/15 09:53:24;;;;;;;2.17;1.60;;;;;;;;;;4821308;29;20049;-71
2022/07/15 09:55:51;;;;;;;3.63;1.80;;;;;;;;;;4814275;29;20099;-70
2022/07/15 09:58:18;;;;;;;3.38;1.70;;;;;;;;;;4817911;29;20124;-69
2022/07/15 10:00:43;;;;;;;3.03;1.40;;;;;;;;;;4817496;29;20041;-70
2022/07/15 10:03:09;;;;;;;3.33;1.90;;;;;;;;;;4815626;29;20473;-70
2022/07/15 10:05:36;;;;;;;5.10;1.95;;;;;;;;;;4822332;29;20042;-70
2022/07/15 10:08:03;;;;;;;5.57;1.98;;;;;;;;;;4812489;29;20050;-71
2022/07/15 10:10:29;;;;;;;6.68;1.80;;;;;;;;;;4814157;29;20095;-71
2022/07/15 10:13:23;;;;;;;7.22;1.50;;;;;;;;;;4818346;29;20027;-71
2022/07/15 10:16:01;;;;;;;3.83;1.60;;;;;;;;;;4814366;29;20051;-70
2022/07/15 10:19:02;;;;;;;4.43;1.60;;;;;;;;;;4801618;29;20050;-69
2022/07/15 10:21:28;;;;;;;6.05;2.20;;;;;;;;;;4816411;29;20045;-70
2022/07/15 10:24:24;;;;;;;6.38;2.05;;;;;;;;;;4818035;29;20053;-70
2022/07/15 10:27:26;;;;;;;4.70;1.80;;;;;;;;;;4815902;29;20043;-70
2022/07/15 10:29:52;;;;;;;2.50;1.40;;;;;;;;;;4803184;29;20043;-71
2022/07/15 10:32:18;;;;;;;3.90;1.60;;;;;;;;;;4814435;29;20062;-72
2022/07/15 10:34:43;;;;;;;4.05;1.20;;;;;;;;;;4814153;29;20038;-71
2022/07/15 10:37:27;;;;;;;2.67;1.55;;;;;;;;;;5054020;27;20433;-51
2022/07/15 10:39:57;;;;;;;6.13;1.80;;;;;;;;;;5017545;28;20099;-50
2022/07/15 10:42:23;;;;;;;3.70;1.70;;;;;;;;;;5017967;28;20046;-48
2022/07/15 10:44:57;;;;;;;4.45;1.98;;;;;;;;;;5021525;28;20059;-54
2022/07/15 10:47:23;;;;;;;1.92;1.45;;;;;;;;;;5021115;28;20048;-57
2022/07/15 10:49:49;;;;;;;2.40;1.25;;;;;;;;;;5017337;28;20133;-56
2022/07/15 10:52:16;;;;;;;3.30;1.60;;;;;;;;;;5019939;28;20499;-56
2022/07/15 10:54:44;;;;;;;4.38;1.77;;;;;;;;;;5019031;28;20822;-56
2022/07/15 10:57:12;;;;;;;4.80;2.10;;;;;;;;;;5017193;28;20119;-55
2022/07/15 10:59:46;;;;;;;3.78;1.70;;;;;;;;;;5022828;28;20468;-56
2022/07/15 11:02:15;;;;;;;4.45;1.63;;;;;;;;;;5021971;28;20160;-55
2022/07/15 11:04:42;;;;;;;2.17;1.50;;;;;;;;;;5018358;28;20045;-57
2022/07/15 11:07:07;;;;;;;2.85;1.67;;;;;;;;;;5018262;28;20044;-56
2022/07/15 11:09:53;;;;;;;4.22;1.60;;;;;;;;;;5018284;28;20046;-55
2022/07/15 11:12:47;;;;;;;6.05;1.58;;;;;;;;;;5014596;28;20052;-56
2022/07/15 11:15:17;;;;;;;4.38;1.60;;;;;;;;;;5002505;28;20411;-56
2022/07/15 11:17:46;;;;;;;5.45;2.05;;;;;;;;;;5016086;28;20053;-53
2022/07/15 11:20:18;;;;;;;9.50;1.65;;;;;;;;;;5015297;28;20129;-55
2022/07/15 11:22:50;;;;;;;;;;;;;;;;;;5014995;28;20049;-52
2022/07/15 11:25:34;;;;;;;3.08;1.67;;;;;;;;;;5020480;28;19939;-54
2022/07/15 11:28:07;;;;;;;3.58;1.50;;;;;;;;;;5016490;28;20061;-60
2022/07/15 11:30:42;;;;;;;4.95;1.70;;;;;;;;;;5021429;28;20137;-61
2022/07/15 11:33:11;;;;;;;4.75;1.88;;;;;;;;;;5023406;28;20061;-61
2022/07/15 11:35:49;;;;;;;1.95;1.40;;;;;;;;;;5018769;28;20071;-60
2022/07/15 11:38:15;;;;;;;4.32;1.92;;;;;;;;;;5021351;28;20180;-60
2022/07/15 11:46:15;;;;;;;2.92;1.60;;;;;;;;;;5019859;28;20052;-62
2022/07/15 11:48:41;;;;;;;3.47;1.67;;;;;;;;;;5006691;28;20046;-61
2022/07/15 11:51:08;;;;;;;4.47;1.80;;;;;;;;;;5008298;28;20057;-62
2022/07/15 11:53:40;;;;;;;1.90;1.63;;;;;;;;;;5003006;28;20190;-61
2022/07/15 11:56:06;;;;;;;4.50;2.10;;;;;;;;;;5010133;28;20455;-62
2022/07/15 11:58:39;;;;;;;3.63;2.00;;;;;;;;;;5004996;28;20088;-63
2022/07/15 12:01:07;;;;;;;3.40;1.90;;;;;;;;;;5007417;28;20034;-62
2022/07/15 12:03:36;;;;;;;4.07;1.88;;;;;;;;;;5003788;28;20096;-62
2022/07/15 12:06:03;;;;;;;3.88;1.90;;;;;;;;;;5004305;28;20057;-61
2022/07/15 12:08:37;;;;;;;4.60;1.80;;;;;;;;;;5005563;28;20156;-62
2022/07/15 12:11:09;;;;;;;3.67;1.75;;;;;;;;;;5005314;28;20387;-62
2022/07/15 12:13:43;;;;;;;2.25;1.80;;;;;;;;;;5000638;28;20029;-62
2022/07/15 12:16:11;;;;;;;4.47;1.73;;;;;;;;;;5004187;28;20041;-61
2022/07/15 12:18:36;;;;;;;3.50;1.70;;;;;;;;;;5006118;28;20057;-62
2022/07/15 12:21:02;;;;;;;3.03;1.80;;;;;;;;;;5003410;28;20052;-62
2022/07/15 12:23:28;;;;;;;8.00;1.85;;;;;;;;;;5003264;28;20042;-62
2022/07/15 12:26:06;;;;;;;2.88;1.90;;;;;;;;;;5003866;28;20045;-62
2022/07/15 12:28:33;;;;;;;5.45;2.00;;;;;;;;;;5004973;28;20033;-62
2022/07/15 12:30:59;;;;;;;3.78;1.92;;;;;;;;;;5006199;28;20040;-61
2022/07/15 12:33:25;;;;;;;2.10;1.50;;;;;;;;;;5004889;28;20046;-62
2022/07/15 12:36:14;;;;;;;8.70;1.83;;;;;;;;;;4998248;28;20055;-60
2022/07/15 12:38:40;;;;;;;5.30;2.17;;;;;;;;;;4995634;28;20451;-62
2022/07/15 12:41:22;;;;;;;3.47;1.73;;;;;;;;;;5003658;28;20054;-61
2022/07/15 12:43:50;;;;;;;3.90;2.05;;;;;;;;;;5004253;28;20042;-61
2022/07/15 12:46:16;;;;;;;2.33;1.67;;;;;;;;;;5004129;28;20061;-60
2022/07/15 12:48:47;;;;;;;2.78;1.55;;;;;;;;;;5003101;28;20070;-61
2022/07/15 12:51:14;;;;;;;3.47;1.65;;;;;;;;;;5003635;28;20092;-61
2022/07/15 12:53:40;;;;;;;2.70;1.50;;;;;;;;;;5001424;28;20056;-61
2022/07/15 12:56:07;;;;;;;3.45;1.33;;;;;;;;;;5004141;28;20132;-61
2022/07/15 12:58:37;;;;;;;5.45;1.60;;;;;;;;;;5006130;28;20436;-61
2022/07/15 13:01:05;;;;;;;4.60;1.55;;;;;;;;;;5004794;28;20037;-62
2022/07/15 13:03:31;;;;;;;4.13;1.40;;;;;;;;;;5007437;28;20050;-61
2022/07/15 13:05:56;;;;;;;3.33;1.52;;;;;;;;;;5001884;28;20145;-67
2022/07/15 13:08:27;;;;;;;7.15;1.65;;;;;;;;;;5005550;28;20049;-63
2022/07/15 13:10:55;;;;;;;5.50;1.50;;;;;;;;;;5006078;28;20054;-66
2022/07/15 13:13:23;;;;;;;3.85;1.67;;;;;;;;;;5006135;28;20038;-62
2022/07/15 13:15:49;;;;;;;3.97;1.40;;;;;;;;;;5002382;28;20032;-63
2022/07/15 13:18:15;;;;;;;3.33;1.58;;;;;;;;;;5003068;28;20042;-62
2022/07/15 13:20:41;;;;;;;4.35;1.73;;;;;;;;;;5002989;28;20050;-61
2022/07/15 13:23:07;;;;;;;3.03;1.67;;;;;;;;;;5006053;28;20499;-61
2022/07/15 13:25:35;;;;;;;3.05;1.65;;;;;;;;;;5004782;28;20037;-62
2022/07/15 13:28:02;;;;;;;4.80;1.65;;;;;;;;;;5004017;28;20041;-61
2022/07/15 13:30:27;;;;;;;4.57;1.50;;;;;;;;;;5005285;28;20408;-61
2022/07/15 13:32:52;;;;;;;4.97;1.40;;;;;;;;;;5005861;28;20060;-63
2022/07/15 13:35:18;;;;;;;3.63;1.33;;;;;;;;;;5006073;28;20046;-63
2022/07/15 13:37:43;;;;;;;1.80;1.20;;;;;;;;;;4999454;28;20077;-64
2022/07/15 13:40:11;;;;;;;4.43;1.17;;;;;;;;;;5003163;28;20037;-64
2022/07/15 13:42:38;;;;;;;1.55;1.20;;;;;;;;;;5004304;28;20877;-63
2022/07/15 13:45:05;;;;;;;1.52;1.20;;;;;;;;;;5003684;28;20046;-61
2022/07/15 13:47:30;;;;;;;2.95;1.38;;;;;;;;;;5003047;28;20038;-62
2022/07/15 13:52:43;;;;;;;3.42;1.33;;;;;;;;;;5002176;28;20490;-61
2022/07/15 13:55:10;;;;;;;4.53;1.20;;;;;;;;;;5002528;28;20061;-62
2022/07/15 13:57:36;;;;;;;1.30;1.05;;;;;;;;;;4999110;28;20042;-62
2022/07/15 14:00:02;;;;;;;4.70;1.20;;;;;;;;;;4999721;28;20505;-63
2022/07/15 14:02:27;;;;;;;2.17;1.10;;;;;;;;;;4998541;28;20064;-62
2022/07/15 14:04:53;;;;;;;2.38;0.85;;;;;;;;;;5002445;28;20510;-62
2022/07/15 14:07:18;;;;;;;1.48;1.10;;;;;;;;;;5004951;28;20044;-61
2022/07/15 14:09:44;;;;;;;3.85;1.20;;;;;;;;;;5002692;28;20167;-61
2022/07/15 14:12:10;;;;;;;2.15;1.00;;;;;;;;;;5002736;28;20061;-61
2022/07/15 14:14:35;;;;;;;3.28;1.20;;;;;;;;;;4992103;28;20038;-60
2022/07/15 14:17:00;;;;;;;3.05;1.05;;;;;;;;;;4994989;28;20567;-59
2022/07/15 14:19:26;;;;;;;7.25;1.40;;;;;;;;;;4997492;28;20029;-57
2022/07/15 14:21:51;;;;;;;4.95;1.20;;;;;;;;;;4998488;28;20152;-56
2022/07/15 14:24:18;;;;;;;2.90;1.10;;;;;;;;;;5009301;28;20999;-58
2022/07/15 14:26:43;;;;;;;1.73;1.02;;;;;;;;;;5002564;28;20054;-59
2022/07/15 14:29:09;;;;;;;3.53;1.00;;;;;;;;;;5002058;28;20488;-58
2022/07/15 14:31:35;;;;;;;1.35;0.93;;;;;;;;;;5001030;28;20037;-59
2022/07/15 14:34:00;;;;;;;1.85;1.13;;;;;;;;;;5008964;28;20029;-59
2022/07/15 14:36:25;;;;;;;3.47;1.10;;;;;;;;;;4997328;28;20054;-59
2022/07/15 14:38:51;;;;;;;2.10;0.80;;;;;;;;;;4998453;28;20041;-59
2022/07/15 14:41:16;;;;;;;4.57;1.10;;;;;;;;;;4990985;28;20077;-60
2022/07/15 14:43:42;;;;;;;3.40;0.90;;;;;;;;;;4999290;28;20503;-57
2022/07/15 14:46:07;;;;;;;5.00;1.23;;;;;;;;;;5002594;28;20050;-58
2022/07/15 14:48:33;;;;;;;2.85;1.02;;;;;;;;;;4996658;28;20073;-58
2022/07/15 14:50:59;;;;;;;1.90;0.80;;;;;;;;;;5006362;28;20038;-59
2022/07/15 14:53:25;;;;;;;1.88;0.95;;;;;;;;;;5000655;28;20034;-59
2022/07/15 14:55:50;;;;;;;1.50;0.90;;;;;;;;;;4997022;28;20052;-60
2022/07/15 14:58:19;;;;;;;5.45;0.98;;;;;;;;;;5000908;28;20112;-61
2022/07/15 15:00:44;;;;;;;1.90;1.00;;;;;;;;;;5000538;28;20029;-60